createdAt,value
2022-10-22T00:29:49.837Z,1001.03
2022-10-22T00:30:30.542Z,1001.01
2022-10-22T00:31:11.035Z,1001.04
2022-10-22T00:31:51.587Z,1001.02
2022-10-22T00:32:32.042Z,1001
2022-10-22T00:33:12.526Z,1001
2022-10-22T00:33:53.007Z,1001.01
2022-10-22T00:34:33.527Z,1001.05
2022-10-22T00:35:13.975Z,1001.04
2022-10-22T00:35:54.418Z,1001.02
2022-10-22T00:36:34.931Z,1001.04
2022-10-22T00:37:15.440Z,1001.04
2022-10-22T00:37:55.950Z,1001.05
2022-10-22T00:38:36.429Z,1001.06
2022-10-22T00:39:16.984Z,1001.07
2022-10-22T00:39:57.565Z,1001.06
2022-10-22T00:40:37.975Z,1001.04
2022-10-22T00:41:18.443Z,1001.08
2022-10-22T00:41:58.950Z,1001.08
2022-10-22T00:42:39.658Z,1001.1
2022-10-22T00:43:19.928Z,1001.08
2022-10-22T00:44:00.414Z,1001.06
2022-10-22T00:44:40.902Z,1001.04
2022-10-22T00:45:21.423Z,1001.01
2022-10-22T00:46:01.861Z,1000.99
2022-10-22T00:46:42.794Z,1000.98
2022-10-22T00:47:23.282Z,1000.98
2022-10-22T00:48:03.822Z,1000.99
2022-10-22T00:49:24.819Z,1000.96
2022-10-22T00:50:05.325Z,1000.99
2022-10-22T00:50:45.785Z,1000.99
2022-10-22T00:51:26.334Z,1000.98
2022-10-22T00:52:08.770Z,1001
2022-10-22T00:52:49.296Z,1001.01
2022-10-22T00:53:29.824Z,1001.02
2022-10-22T00:54:10.296Z,1000.99
2022-10-22T00:54:50.772Z,1001.01
2022-10-22T00:55:31.214Z,1001.03
2022-10-22T00:56:11.714Z,1001.02
2022-10-22T00:56:52.226Z,1001.08
2022-10-22T00:57:32.651Z,1001
2022-10-22T00:58:13.167Z,1001.01
2022-10-22T00:59:34.205Z,1000.94
2022-10-22T01:00:14.680Z,1000.93
2022-10-22T01:00:55.257Z,1000.93
2022-10-22T01:01:35.592Z,1000.91
2022-10-22T01:02:16.084Z,1000.93
2022-10-22T01:02:56.554Z,1000.95
2022-10-22T01:03:37.076Z,1000.92
2022-10-22T01:04:17.511Z,1000.92
2022-10-22T01:04:58.021Z,1000.94
2022-10-22T01:05:38.536Z,1000.9
2022-10-22T01:06:19.054Z,1000.88
2022-10-22T01:06:59.579Z,1000.86
2022-10-22T01:07:40.113Z,1000.86
2022-10-22T01:08:20.546Z,1000.9
2022-10-22T01:09:01.104Z,1000.93
2022-10-22T01:09:41.554Z,1000.93
2022-10-22T01:10:21.987Z,1000.9
2022-10-22T01:11:02.463Z,1000.93
2022-10-22T01:11:42.994Z,1000.94
2022-10-22T01:12:23.458Z,1000.96
2022-10-22T01:13:03.916Z,1000.9
2022-10-22T01:13:44.415Z,1000.95
2022-10-22T01:14:24.913Z,1000.97
2022-10-22T01:15:05.345Z,1000.96
2022-10-22T01:15:45.835Z,1000.96
2022-10-22T01:16:26.381Z,1000.96
2022-10-22T01:17:06.883Z,1000.95
2022-10-22T01:17:47.308Z,1001
2022-10-22T01:18:27.811Z,1000.94
2022-10-22T01:19:08.230Z,1000.94
2022-10-22T01:19:48.709Z,1000.91
2022-10-22T01:20:29.172Z,1000.94
2022-10-22T01:23:27.703Z,1000.95
2022-10-22T01:24:08.166Z,1000.94
2022-10-22T01:24:48.601Z,1000.92
2022-10-22T01:25:29.113Z,1000.92
2022-10-22T01:26:09.591Z,1000.85
2022-10-22T01:26:50.048Z,1000.85
2022-10-22T01:27:30.582Z,1000.81
2022-10-22T01:28:11.109Z,1000.85
2022-10-22T01:28:51.547Z,1000.84
2022-10-22T01:29:32.017Z,1000.85
2022-10-22T01:30:12.487Z,1000.84
2022-10-22T01:30:52.981Z,1000.86
2022-10-22T01:31:33.522Z,1000.85
2022-10-22T01:32:14.034Z,1000.83
2022-10-22T01:32:54.510Z,1000.86
2022-10-22T01:33:35.029Z,1000.85
2022-10-22T01:34:15.496Z,1000.83
2022-10-22T01:34:55.947Z,1000.83
2022-10-22T01:36:17.037Z,1000.78
2022-10-22T01:36:57.449Z,1000.85
2022-10-22T01:37:38.201Z,1000.85
2022-10-22T01:38:18.399Z,1000.87
2022-10-22T01:38:58.877Z,1000.88
2022-10-22T01:39:39.378Z,1000.92
2022-10-22T01:40:19.870Z,1000.93
2022-10-22T01:41:00.377Z,1000.91
2022-10-22T01:41:40.943Z,1000.88
2022-10-22T01:42:21.413Z,1000.86
2022-10-22T01:43:01.919Z,1000.85
2022-10-22T01:43:42.410Z,1000.87
2022-10-22T01:44:22.925Z,1000.91
2022-10-22T01:45:03.367Z,1000.94
2022-10-22T01:45:43.928Z,1000.95
2022-10-22T01:46:24.410Z,1000.95
2022-10-22T01:47:04.934Z,1000.96
2022-10-22T01:47:45.449Z,1000.9
2022-10-22T01:49:06.444Z,1000.9
2022-10-22T01:49:46.872Z,1000.87
2022-10-22T01:50:27.388Z,1000.91
2022-10-22T01:51:07.869Z,1000.94
2022-10-22T01:51:48.344Z,1001
2022-10-22T01:52:28.892Z,1001.01
2022-10-22T01:53:09.407Z,1001
2022-10-22T01:53:49.918Z,1000.95
2022-10-22T01:54:30.348Z,1000.93
2022-10-22T01:55:10.854Z,1000.87
2022-10-22T01:55:51.324Z,1000.87
2022-10-22T01:56:31.787Z,1000.82
2022-10-22T01:57:12.257Z,1000.86
2022-10-22T01:57:52.726Z,1000.89
2022-10-22T01:58:33.184Z,1000.87
2022-10-22T01:59:13.724Z,1000.87
2022-10-22T01:59:54.134Z,1000.88
2022-10-22T02:00:34.646Z,1000.87
2022-10-22T02:01:15.128Z,1000.9
2022-10-22T02:02:36.377Z,1000.9
2022-10-22T02:03:18.518Z,1000.89
2022-10-22T02:03:57.418Z,1000.9
2022-10-22T02:04:37.901Z,1000.91
2022-10-22T02:05:18.418Z,1000.91
2022-10-22T02:05:58.815Z,1000.9
2022-10-22T02:06:39.296Z,1000.92
2022-10-22T02:07:19.821Z,1000.97
2022-10-22T02:08:00.330Z,1000.96
2022-10-22T02:08:40.867Z,1000.94
2022-10-22T02:09:21.328Z,1000.95
2022-10-22T02:10:01.864Z,1000.97
2022-10-22T02:10:42.328Z,1000.96
2022-10-22T02:11:22.807Z,1000.95
2022-10-22T02:12:03.400Z,1001.01
2022-10-22T02:12:43.976Z,1001.02
2022-10-22T02:13:24.215Z,1000.99
2022-10-22T02:14:04.705Z,1000.99
2022-10-22T02:14:45.190Z,1000.97
2022-10-22T02:15:25.698Z,1001
2022-10-22T02:16:06.170Z,1001
2022-10-22T02:16:46.715Z,1000.99
2022-10-22T02:17:27.194Z,1001
2022-10-22T02:18:07.767Z,1000.99
2022-10-22T02:18:48.296Z,1000.94
2022-10-22T02:19:28.745Z,1000.94
2022-10-22T02:22:43.185Z,1000.97
2022-10-22T02:23:23.263Z,1001
2022-10-22T02:24:03.721Z,1001.01
2022-10-22T02:24:44.240Z,1001.01
2022-10-22T02:25:24.720Z,1001.03
2022-10-22T02:26:05.214Z,1001.03
2022-10-22T02:26:45.727Z,1001.01
2022-10-22T02:28:06.812Z,1001
2022-10-22T02:28:47.385Z,1001
2022-10-22T02:29:27.853Z,1001.03
2022-10-22T02:30:48.840Z,1001
2022-10-22T02:31:29.369Z,1000.95
2022-10-22T02:32:09.827Z,1000.94
2022-10-22T02:32:50.279Z,1000.95
2022-10-22T02:33:30.811Z,1000.94
2022-10-22T02:34:11.275Z,1000.93
2022-10-22T02:34:51.801Z,1000.95
2022-10-22T02:35:32.262Z,1000.92
2022-10-22T02:36:12.801Z,1000.94
2022-10-22T02:36:53.331Z,1000.89
2022-10-22T02:37:33.789Z,1000.88
2022-10-22T02:38:14.300Z,1000.85
2022-10-22T02:38:54.805Z,1000.88
2022-10-22T02:39:35.266Z,1000.86
2022-10-22T02:40:56.182Z,1000.87
2022-10-22T02:41:36.696Z,1000.95
2022-10-22T02:42:17.124Z,1000.93
2022-10-22T02:42:57.568Z,1000.94
2022-10-22T02:43:38.032Z,1000.95
2022-10-22T02:44:18.499Z,1000.98
2022-10-22T02:44:58.993Z,1001
2022-10-22T02:45:39.488Z,1001.01
2022-10-22T02:46:19.956Z,1001.02
2022-10-22T02:47:00.411Z,1001.01
2022-10-22T02:47:40.929Z,1001.02
2022-10-22T02:49:01.929Z,1001.02
2022-10-22T02:49:42.478Z,1001
2022-10-22T02:50:22.946Z,1001.07
2022-10-22T02:51:03.404Z,1001.05
2022-10-22T02:51:43.888Z,1001.02
2022-10-22T02:52:24.392Z,1001.05
2022-10-22T02:53:04.862Z,1001
2022-10-22T02:53:46.254Z,1001.01
2022-10-22T02:54:26.759Z,1001.05
2022-10-22T02:55:07.319Z,1001.01
2022-10-22T02:55:48.036Z,1001.03
2022-10-22T02:56:31.681Z,1000.97
2022-10-22T02:57:09.932Z,1000.99
2022-10-22T02:57:50.622Z,1001.01
2022-10-22T02:58:31.140Z,1000.97
2022-10-22T02:59:11.622Z,1000.94
2022-10-22T02:59:52.092Z,1000.97
2022-10-22T03:00:32.670Z,1001.03
2022-10-22T03:01:15.205Z,1000.98
2022-10-22T03:01:53.537Z,1000.99
2022-10-22T03:02:33.988Z,1001.02
2022-10-22T03:03:14.522Z,1000.97
2022-10-22T03:03:54.959Z,1000.96
2022-10-22T03:04:35.462Z,1000.99
2022-10-22T03:05:15.912Z,1001.03
2022-10-22T03:05:56.510Z,1001.02
2022-10-22T03:06:36.922Z,1001.02
2022-10-22T03:07:17.411Z,1001.06
2022-10-22T03:08:38.436Z,1001.05
2022-10-22T03:09:20.121Z,1001.06
2022-10-22T03:09:59.437Z,1001.06
2022-10-22T03:10:39.858Z,1001.04
2022-10-22T03:11:20.380Z,1001.09
2022-10-22T03:12:00.859Z,1001.07
2022-10-22T03:12:41.321Z,1001.08
2022-10-22T03:13:21.773Z,1001.14
2022-10-22T03:14:02.285Z,1001.13
2022-10-22T03:14:42.851Z,1001.14
2022-10-22T03:15:23.336Z,1001.17
2022-10-22T03:16:03.800Z,1001.19
2022-10-22T03:16:44.235Z,1001.22
2022-10-22T03:17:24.752Z,1001.21
2022-10-22T03:18:05.219Z,1001.21
2022-10-22T03:18:45.701Z,1001.25
2022-10-22T03:19:26.191Z,1001.16
2022-10-22T03:20:06.653Z,1001.17
2022-10-22T03:20:47.120Z,1001.18
2022-10-22T03:21:27.601Z,1001.18
2022-10-22T03:22:08.128Z,1001.12
2022-10-22T03:22:48.584Z,1001.16
2022-10-22T03:23:29.079Z,1001.13
2022-10-22T03:24:09.538Z,1001.14
2022-10-22T03:24:50.082Z,1001.17
2022-10-22T03:25:30.555Z,1001.2
2022-10-22T03:26:11.039Z,1001.15
2022-10-22T03:26:51.540Z,1001.15
2022-10-22T03:27:32.027Z,1001.14
2022-10-22T03:28:12.487Z,1001.15
2022-10-22T03:28:53.010Z,1001.12
2022-10-22T03:31:51.857Z,1001.13
2022-10-22T03:32:32.158Z,1001.15
2022-10-22T03:33:12.607Z,1001.17
2022-10-22T03:33:53.126Z,1001.14
2022-10-22T03:34:33.602Z,1001.16
2022-10-22T03:35:14.124Z,1001.16
2022-10-22T03:35:54.618Z,1001.18
2022-10-22T03:36:35.114Z,1001.18
2022-10-22T03:37:15.589Z,1001.17
2022-10-22T03:37:56.098Z,1001.17
2022-10-22T03:38:37.077Z,1001.15
2022-10-22T03:39:17.524Z,1001.15
2022-10-22T03:39:57.958Z,1001.2
2022-10-22T03:40:38.457Z,1001.18
2022-10-22T03:41:18.891Z,1001.18
2022-10-22T03:41:59.454Z,1001.19
2022-10-22T03:42:39.852Z,1001.21
2022-10-22T03:43:20.324Z,1001.18
2022-10-22T03:44:00.800Z,1001.19
2022-10-22T03:44:41.326Z,1001.16
2022-10-22T03:45:21.767Z,1001.17
2022-10-22T03:46:02.307Z,1001.2
2022-10-22T03:46:42.703Z,1001.2
2022-10-22T03:47:23.292Z,1001.21
2022-10-22T03:48:44.257Z,1001.23
2022-10-22T03:49:24.780Z,1001.23
2022-10-22T03:50:05.234Z,1001.2
2022-10-22T03:50:45.771Z,1001.24
2022-10-22T03:51:26.245Z,1001.2
2022-10-22T03:52:06.768Z,1001.22
2022-10-22T03:52:47.259Z,1001.25
2022-10-22T03:53:27.788Z,1001.21
2022-10-22T03:54:08.261Z,1001.24
2022-10-22T03:54:48.829Z,1001.22
2022-10-22T03:56:09.713Z,1001.22
2022-10-22T03:56:50.222Z,1001.22
2022-10-22T03:57:30.679Z,1001.21
2022-10-22T03:58:11.258Z,1001.25
2022-10-22T03:58:51.740Z,1001.27
2022-10-22T03:59:32.246Z,1001.25
2022-10-22T04:00:12.738Z,1001.27
2022-10-22T04:00:53.299Z,1001.28
2022-10-22T04:01:33.737Z,1001.25
2022-10-22T04:02:14.266Z,1001.27
2022-10-22T04:02:54.749Z,1001.27
2022-10-22T04:03:35.278Z,1001.28
2022-10-22T04:04:15.889Z,1001.3
2022-10-22T04:04:56.939Z,1001.33
2022-10-22T04:05:38.968Z,1001.34
2022-10-22T04:06:19.779Z,1001.32
2022-10-22T04:07:00.312Z,1001.34
2022-10-22T04:07:42.173Z,1001.39
2022-10-22T04:08:23.748Z,1001.39
2022-10-22T04:09:04.279Z,1001.39
2022-10-22T04:09:44.689Z,1001.4
2022-10-22T04:10:25.898Z,1001.42
2022-10-22T04:11:06.378Z,1001.46
2022-10-22T04:11:46.859Z,1001.46
2022-10-22T04:12:27.421Z,1001.46
2022-10-22T04:13:08.204Z,1001.49
2022-10-22T04:13:48.703Z,1001.45
2022-10-22T04:14:29.281Z,1001.46
2022-10-22T04:15:09.858Z,1001.47
2022-10-22T04:15:50.574Z,1001.5
2022-10-22T04:16:31.297Z,1001.53
2022-10-22T04:17:13.543Z,1001.49
2022-10-22T04:17:55.849Z,1001.55
2022-10-22T04:18:41.104Z,1001.55
2022-10-22T04:19:24.087Z,1001.54
2022-10-22T04:20:04.548Z,1001.56
2022-10-22T04:21:25.749Z,1001.6
2022-10-22T04:22:06.338Z,1001.58
2022-10-22T04:22:48.129Z,1001.58
2022-10-22T04:23:28.626Z,1001.63
2022-10-22T04:26:27.297Z,1001.64
2022-10-22T04:27:08.091Z,1001.63
2022-10-22T04:27:48.526Z,1001.65
2022-10-22T04:28:28.967Z,1001.62
2022-10-22T04:29:10.634Z,1001.62
2022-10-22T04:29:50.614Z,1001.65
2022-10-22T04:33:04.836Z,1001.73
2022-10-22T04:33:46.528Z,1001.73
2022-10-22T04:34:26.741Z,1001.76
2022-10-22T04:36:28.620Z,1001.77
2022-10-22T04:37:09.428Z,1001.79
2022-10-22T04:37:52.579Z,1001.78
2022-10-22T04:38:30.945Z,1001.8
2022-10-22T04:39:11.464Z,1001.8
2022-10-22T04:39:51.944Z,1001.79
2022-10-22T04:40:32.453Z,1001.78
2022-10-22T04:41:13.382Z,1001.78
2022-10-22T04:41:53.951Z,1001.8
2022-10-22T04:42:34.366Z,1001.81
2022-10-22T04:43:14.886Z,1001.8
2022-10-22T04:43:55.474Z,1001.8
2022-10-22T04:44:35.994Z,1001.8
2022-10-22T04:45:16.650Z,1001.83
2022-10-22T04:46:37.769Z,1001.77
2022-10-22T04:47:18.742Z,1001.77
2022-10-22T04:47:59.302Z,1001.74
2022-10-22T04:48:40.022Z,1001.76
2022-10-22T04:49:20.766Z,1001.79
2022-10-22T04:50:01.824Z,1001.77
2022-10-22T04:50:41.991Z,1001.75
2022-10-22T04:51:22.512Z,1001.75
2022-10-22T04:52:03.013Z,1001.74
2022-10-22T04:52:43.909Z,1001.75
2022-10-22T04:53:24.668Z,1001.77
2022-10-22T04:54:05.373Z,1001.73
2022-10-22T04:54:46.644Z,1001.74
2022-10-22T04:55:27.142Z,1001.73
2022-10-22T04:58:42.609Z,1001.69
2022-10-22T05:01:58.138Z,1001.73
2022-10-22T05:02:39.795Z,1001.78
2022-10-22T05:03:26.682Z,1001.77
2022-10-22T05:04:07.596Z,1001.78
2022-10-22T05:04:48.174Z,1001.78
2022-10-22T05:05:28.775Z,1001.77
2022-10-22T05:06:10.136Z,1001.77
2022-10-22T05:06:50.428Z,1001.76
2022-10-22T05:07:30.971Z,1001.77
2022-10-22T05:08:11.435Z,1001.77
2022-10-22T05:08:52.223Z,1001.8
2022-10-22T05:09:32.490Z,1001.84
2022-10-22T05:10:12.951Z,1001.82
2022-10-22T05:10:53.470Z,1001.82
2022-10-22T05:11:33.975Z,1001.81
2022-10-22T05:12:14.498Z,1001.85
2022-10-22T05:12:54.954Z,1001.9
2022-10-22T05:13:35.459Z,1001.88
2022-10-22T05:14:16.025Z,1001.88
2022-10-22T05:14:56.576Z,1001.9
2022-10-22T05:15:37.081Z,1001.91
2022-10-22T05:16:17.620Z,1001.98
2022-10-22T05:16:58.024Z,1001.92
2022-10-22T05:17:38.749Z,1001.94
2022-10-22T05:18:20.365Z,1001.97
2022-10-22T05:19:39.907Z,1001.97
2022-10-22T05:20:20.407Z,1001.99
2022-10-22T05:21:00.907Z,1001.97
2022-10-22T05:21:41.349Z,1002.01
2022-10-22T05:22:21.975Z,1001.99
2022-10-22T05:23:02.387Z,1001.96
2022-10-22T05:23:42.847Z,1001.95
2022-10-22T05:24:23.329Z,1001.99
2022-10-22T05:25:03.809Z,1002
2022-10-22T05:25:44.263Z,1002.02
2022-10-22T05:26:24.835Z,1001.99
2022-10-22T05:27:05.358Z,1002
2022-10-22T05:27:45.818Z,1002.01
2022-10-22T05:28:26.304Z,1002.02
2022-10-22T05:29:47.302Z,1002.07
2022-10-22T05:30:27.811Z,1002.06
2022-10-22T05:31:08.286Z,1002.08
2022-10-22T05:31:48.758Z,1002.08
2022-10-22T05:32:29.267Z,1002.11
2022-10-22T05:33:09.751Z,1002.13
2022-10-22T05:33:50.163Z,1002.13
2022-10-22T05:34:30.674Z,1002.15
2022-10-22T05:35:11.145Z,1002.14
2022-10-22T05:35:51.625Z,1002.17
2022-10-22T05:36:32.097Z,1002.15
2022-10-22T05:37:12.564Z,1002.23
2022-10-22T05:37:53.101Z,1002.25
2022-10-22T05:38:33.598Z,1002.23
2022-10-22T05:39:14.045Z,1002.26
2022-10-22T05:39:57.627Z,1002.23
2022-10-22T05:40:34.949Z,1002.25
2022-10-22T05:41:15.416Z,1002.28
2022-10-22T05:41:55.883Z,1002.27
2022-10-22T05:42:36.432Z,1002.26
2022-10-22T05:43:16.920Z,1002.28
2022-10-22T05:46:18.753Z,1002.29
2022-10-22T05:46:56.170Z,1002.31
2022-10-22T05:47:36.541Z,1002.27
2022-10-22T05:48:17.091Z,1002.33
2022-10-22T05:48:57.593Z,1002.32
2022-10-22T05:49:38.054Z,1002.29
2022-10-22T05:50:18.555Z,1002.37
2022-10-22T05:50:59.068Z,1002.34
2022-10-22T05:51:40.158Z,1002.35
2022-10-22T05:52:20.443Z,1002.34
2022-10-22T05:53:00.975Z,1002.38
2022-10-22T05:53:41.417Z,1002.34
2022-10-22T06:31:03.567Z,1002.81
2022-10-22T06:31:52.412Z,1002.83
2022-10-22T06:32:41.019Z,1002.78
2022-10-22T06:33:29.579Z,1002.78
2022-10-22T06:34:22.018Z,1002.81
2022-10-22T06:35:05.216Z,1002.83
2022-10-22T06:35:45.680Z,1002.87
2022-10-22T06:36:26.165Z,1002.81
2022-10-22T06:37:06.685Z,1002.87
2022-10-22T06:37:47.274Z,1002.89
2022-10-22T06:38:27.724Z,1002.89
2022-10-22T06:39:08.214Z,1002.91
2022-10-22T06:39:48.668Z,1002.9
2022-10-22T06:40:29.238Z,1002.95
2022-10-22T06:41:09.647Z,1002.93
2022-10-22T06:41:50.135Z,1002.93
2022-10-22T06:42:30.619Z,1002.95
2022-10-22T06:43:11.131Z,1002.97
2022-10-22T06:43:51.768Z,1002.96
2022-10-22T06:44:32.140Z,1002.96
2022-10-22T06:45:12.678Z,1002.98
2022-10-22T06:45:53.153Z,1002.97
2022-10-22T06:46:33.643Z,1002.95
2022-10-22T06:47:14.219Z,1003.01
2022-10-22T06:47:54.635Z,1003
2022-10-22T06:48:35.171Z,1003
2022-10-22T06:49:15.640Z,1003.02
2022-10-22T06:49:56.116Z,1002.98
2022-10-22T06:50:36.637Z,1003.04
2022-10-22T06:51:17.195Z,1003.02
2022-10-22T06:51:57.584Z,1003.01
2022-10-22T06:52:38.083Z,1003.02
2022-10-22T06:53:59.107Z,1003.05
2022-10-22T06:54:39.669Z,1003.07
2022-10-22T06:55:20.168Z,1003.02
2022-10-22T06:56:00.660Z,1003.05
2022-10-22T06:56:41.194Z,1003.09
2022-10-22T06:57:21.662Z,1003.09
2022-10-22T06:58:02.116Z,1003.1
2022-10-22T06:58:44.287Z,1003.13
2022-10-22T06:59:24.710Z,1003.14
2022-10-22T07:00:05.209Z,1003.16
2022-10-22T07:00:45.651Z,1003.16
2022-10-22T07:01:26.246Z,1003.16
2022-10-22T07:02:06.739Z,1003.22
2022-10-22T07:02:47.203Z,1003.24
2022-10-22T07:03:27.667Z,1003.23
2022-10-22T07:04:08.104Z,1003.22
2022-10-22T07:04:48.626Z,1003.27
2022-10-22T07:05:29.164Z,1003.24
2022-10-22T07:06:09.636Z,1003.26
2022-10-22T07:06:50.112Z,1003.27
2022-10-22T07:07:30.568Z,1003.29
2022-10-22T07:08:11.087Z,1003.31
2022-10-22T07:08:51.663Z,1003.29
2022-10-22T07:09:31.982Z,1003.28
2022-10-22T07:10:12.497Z,1003.34
2022-10-22T07:11:33.423Z,1003.38
2022-10-22T07:12:13.950Z,1003.37
2022-10-22T07:12:54.433Z,1003.39
2022-10-22T07:13:34.979Z,1003.39
2022-10-22T07:14:15.459Z,1003.37
2022-10-22T07:14:55.987Z,1003.4
2022-10-22T07:15:36.520Z,1003.42
2022-10-22T07:16:17.052Z,1003.42
2022-10-22T07:16:57.475Z,1003.45
2022-10-22T07:17:38.020Z,1003.46
2022-10-22T07:18:18.438Z,1003.51
2022-10-22T07:18:58.877Z,1003.51
2022-10-22T07:19:39.410Z,1003.51
2022-10-22T07:20:19.850Z,1003.52
2022-10-22T07:21:00.341Z,1003.57
2022-10-22T07:21:40.843Z,1003.61
2022-10-22T07:22:21.389Z,1003.58
2022-10-22T07:23:01.864Z,1003.66
2022-10-22T07:24:22.894Z,1003.67
2022-10-22T07:25:05.135Z,1003.67
2022-10-22T07:25:43.932Z,1003.68
2022-10-22T07:26:24.330Z,1003.7
2022-10-22T07:27:08.164Z,1003.69
2022-10-22T07:27:47.136Z,1003.71
2022-10-22T07:28:27.751Z,1003.68
2022-10-22T07:29:08.253Z,1003.69
2022-10-22T07:29:48.681Z,1003.68
2022-10-22T07:30:29.212Z,1003.74
2022-10-22T07:31:09.728Z,1003.79
2022-10-22T07:31:50.151Z,1003.8
2022-10-22T07:32:30.604Z,1003.79
2022-10-22T07:33:11.118Z,1003.77
2022-10-22T07:33:51.572Z,1003.76
2022-10-22T07:34:32.148Z,1003.79
2022-10-22T07:35:12.622Z,1003.85
2022-10-22T07:35:53.097Z,1003.81
2022-10-22T07:36:33.592Z,1003.82
2022-10-22T07:37:14.042Z,1003.81
2022-10-22T07:37:54.603Z,1003.85
2022-10-22T07:38:35.100Z,1003.82
2022-10-22T07:39:15.641Z,1003.9
2022-10-22T07:39:57.650Z,1003.88
2022-10-22T07:40:36.649Z,1003.85
2022-10-22T07:41:17.122Z,1003.89
2022-10-22T07:41:57.632Z,1003.86
2022-10-22T07:42:38.120Z,1003.88
2022-10-22T07:43:18.765Z,1003.9
2022-10-22T07:43:59.151Z,1003.86
2022-10-22T07:44:39.743Z,1003.92
2022-10-22T07:46:00.689Z,1003.95
2022-10-22T07:46:42.744Z,1003.93
2022-10-22T07:47:21.700Z,1003.93
2022-10-22T07:48:02.211Z,1003.97
2022-10-22T07:48:42.708Z,1003.98
2022-10-22T07:49:23.149Z,1003.98
2022-10-22T07:50:03.677Z,1004
2022-10-22T07:53:12.341Z,1004.11
2022-10-22T07:53:52.825Z,1004.1
2022-10-22T07:54:33.288Z,1004.06
2022-10-22T07:55:13.792Z,1004.08
2022-10-22T07:55:54.316Z,1004.08
2022-10-22T07:56:34.791Z,1004.11
2022-10-22T07:57:15.308Z,1004.09
2022-10-22T08:00:29.184Z,1004.1
2022-10-22T08:01:10.381Z,1004.14
2022-10-22T08:01:50.791Z,1004.12
2022-10-22T08:02:31.273Z,1004.14
2022-10-22T08:03:11.781Z,1004.16
2022-10-22T08:03:52.577Z,1004.19
2022-10-22T08:04:33.048Z,1004.18
2022-10-22T08:05:13.539Z,1004.19
2022-10-22T08:05:54.033Z,1004.21
2022-10-22T08:06:34.538Z,1004.23
2022-10-22T08:07:14.978Z,1004.27
2022-10-22T08:07:55.436Z,1004.25
2022-10-22T08:08:35.968Z,1004.23
2022-10-22T08:10:33.704Z,1004.33
2022-10-22T08:11:14.151Z,1004.32
2022-10-22T08:11:54.659Z,1004.3
2022-10-22T08:12:35.194Z,1004.39
2022-10-22T08:13:15.724Z,1004.36
2022-10-22T08:13:56.316Z,1004.37
2022-10-22T08:14:36.872Z,1004.36
2022-10-22T08:15:17.535Z,1004.37
2022-10-22T08:15:58.690Z,1004.38
2022-10-22T08:16:40.087Z,1004.36
2022-10-22T08:17:20.565Z,1004.38
2022-10-22T08:18:01.109Z,1004.43
2022-10-22T08:18:41.566Z,1004.42
2022-10-22T08:19:22.059Z,1004.42
2022-10-22T08:20:03.654Z,1004.41
2022-10-22T08:20:44.847Z,1004.44
2022-10-22T08:21:27.678Z,1004.4
2022-10-22T08:22:09.288Z,1004.4
2022-10-22T08:22:49.909Z,1004.39
2022-10-22T08:23:31.495Z,1004.38
2022-10-22T08:24:12.358Z,1004.39
2022-10-22T08:24:52.830Z,1004.44
2022-10-22T08:25:33.318Z,1004.43
2022-10-22T08:26:13.785Z,1004.46
2022-10-22T08:26:54.404Z,1004.46
2022-10-22T08:27:34.911Z,1004.47
2022-10-22T08:30:03.007Z,1004.51
2022-10-22T08:30:43.319Z,1004.5
2022-10-22T08:31:23.802Z,1004.52
2022-10-22T08:32:04.265Z,1004.57
2022-10-22T08:32:44.719Z,1004.54
2022-10-22T08:33:25.246Z,1004.59
2022-10-22T08:34:05.719Z,1004.55
2022-10-22T08:34:46.271Z,1004.57
2022-10-22T08:35:26.714Z,1004.59
2022-10-22T08:36:07.141Z,1004.6
2022-10-22T08:36:47.657Z,1004.61
2022-10-22T08:37:28.244Z,1004.58
2022-10-22T08:38:08.830Z,1004.62
2022-10-22T08:38:49.326Z,1004.61
2022-10-22T08:39:29.910Z,1004.6
2022-10-22T08:40:10.400Z,1004.6
2022-10-22T08:40:50.900Z,1004.62
2022-10-22T08:41:31.389Z,1004.67
2022-10-22T08:42:12.616Z,1004.63
2022-10-22T08:42:53.087Z,1004.65
2022-10-22T08:43:33.517Z,1004.69
2022-10-22T08:44:14.336Z,1004.69
2022-10-22T08:44:54.830Z,1004.69
2022-10-22T08:45:35.263Z,1004.69
2022-10-22T08:46:15.794Z,1004.71
2022-10-22T08:46:56.176Z,1004.69
2022-10-22T08:47:36.666Z,1004.69
2022-10-22T08:48:17.170Z,1004.74
2022-10-22T08:48:57.717Z,1004.72
2022-10-22T08:49:39.709Z,1004.74
2022-10-22T08:50:18.739Z,1004.72
2022-10-22T08:50:59.060Z,1004.74
2022-10-22T08:51:39.664Z,1004.73
2022-10-22T08:52:20.271Z,1004.79
2022-10-22T08:53:00.879Z,1004.77
2022-10-22T08:53:41.417Z,1004.78
2022-10-22T08:54:21.920Z,1004.82
2022-10-22T08:55:02.409Z,1004.82
2022-10-22T08:55:42.928Z,1004.85
2022-10-22T08:56:23.356Z,1004.84
2022-10-22T08:57:03.836Z,1004.86
2022-10-22T08:57:44.931Z,1004.89
2022-10-22T08:58:24.736Z,1004.9
2022-10-22T08:59:05.212Z,1004.88
2022-10-22T08:59:45.705Z,1004.92
2022-10-22T09:00:26.201Z,1004.95
2022-10-22T09:01:06.911Z,1004.9
2022-10-22T09:01:47.382Z,1004.91
2022-10-22T09:02:28.203Z,1004.89
2022-10-22T09:03:08.682Z,1004.87
2022-10-22T09:03:49.180Z,1004.9
2022-10-22T09:04:29.681Z,1004.92
2022-10-22T09:05:11.597Z,1004.94
2022-10-22T09:06:31.221Z,1004.94
2022-10-22T09:07:11.747Z,1004.95
2022-10-22T09:07:52.177Z,1004.96
2022-10-22T09:08:32.695Z,1004.95
2022-10-22T09:09:13.145Z,1004.97
2022-10-22T09:09:53.630Z,1004.99
2022-10-22T09:10:34.090Z,1004.93
2022-10-22T09:11:14.560Z,1004.99
2022-10-22T09:11:55.039Z,1005.01
2022-10-22T09:12:35.983Z,1004.96
2022-10-22T09:13:16.521Z,1005.01
2022-10-22T09:13:57.594Z,1005.01
2022-10-22T09:14:38.074Z,1005.02
2022-10-22T09:15:18.598Z,1004.99
2022-10-22T09:15:59.160Z,1005.03
2022-10-22T09:16:39.714Z,1005.05
2022-10-22T09:17:20.183Z,1005.03
2022-10-22T09:18:00.707Z,1004.97
2022-10-22T09:18:41.211Z,1005.04
2022-10-22T09:19:21.804Z,1005.02
2022-10-22T09:20:02.413Z,1004.99
2022-10-22T09:20:42.879Z,1005.03
2022-10-22T09:21:23.425Z,1005.04
2022-10-22T09:22:03.832Z,1005.01
2022-10-22T09:22:49.540Z,1005.05
2022-10-22T09:23:30.210Z,1005.01
2022-10-22T09:24:11.059Z,1004.96
2022-10-22T09:24:51.589Z,1004.96
2022-10-22T09:25:32.005Z,1005.01
2022-10-22T09:26:12.499Z,1005.03
2022-10-22T09:26:53.724Z,1005.02
2022-10-22T09:27:34.262Z,1005.03
2022-10-22T09:28:14.694Z,1005.03
2022-10-22T09:28:55.221Z,1005.05
2022-10-22T09:31:23.534Z,1005.07
2022-10-22T09:32:04.073Z,1005.1
2022-10-22T09:32:44.481Z,1005.04
2022-10-22T09:33:24.962Z,1005.06
2022-10-22T09:34:05.411Z,1005.09
2022-10-22T09:34:45.940Z,1005.08
2022-10-22T09:35:26.529Z,1005.08
2022-10-22T09:36:06.958Z,1005.07
2022-10-22T09:36:47.465Z,1005.1
2022-10-22T09:37:27.879Z,1005.1
2022-10-22T09:38:08.347Z,1005.13
2022-10-22T09:38:48.846Z,1005.14
2022-10-22T09:39:29.507Z,1005.15
2022-10-22T09:40:09.944Z,1005.12
2022-10-22T09:40:50.354Z,1005.11
2022-10-22T09:41:30.829Z,1005.12
2022-10-22T09:42:11.298Z,1005.11
2022-10-22T09:42:51.788Z,1005.13
2022-10-22T09:43:32.265Z,1005.16
2022-10-22T09:44:12.745Z,1005.1
2022-10-22T09:44:53.260Z,1005.14
2022-10-22T09:45:33.694Z,1005.15
2022-10-22T09:46:14.188Z,1005.14
2022-10-22T09:46:54.652Z,1005.15
2022-10-22T09:48:15.620Z,1005.23
2022-10-22T09:48:56.082Z,1005.22
2022-10-22T09:49:36.607Z,1005.24
2022-10-22T09:50:17.111Z,1005.26
2022-10-22T09:50:57.618Z,1005.2
2022-10-22T09:51:38.080Z,1005.21
2022-10-22T09:52:18.590Z,1005.25
2022-10-22T09:52:59.061Z,1005.26
2022-10-22T09:53:39.522Z,1005.26
2022-10-22T09:54:19.985Z,1005.27
2022-10-22T09:55:00.459Z,1005.28
2022-10-22T09:55:40.981Z,1005.33
2022-10-22T09:56:21.422Z,1005.32
2022-10-22T09:57:01.960Z,1005.31
2022-10-22T09:57:43.793Z,1005.33
2022-10-22T09:58:22.889Z,1005.29
2022-10-22T09:59:03.393Z,1005.32
2022-10-22T09:59:43.887Z,1005.29
2022-10-22T10:00:24.393Z,1005.35
2022-10-22T10:01:04.889Z,1005.37
2022-10-22T10:01:45.393Z,1005.35
2022-10-22T10:02:37.835Z,1005.36
2022-10-22T10:03:06.455Z,1005.42
2022-10-22T10:03:46.934Z,1005.45
2022-10-22T10:04:27.413Z,1005.42
2022-10-22T10:05:07.921Z,1005.45
2022-10-22T10:05:48.456Z,1005.47